KQA351 HTDA-HKJK
Flight info
| Callsign | KQA351 |
|---|---|
| Flight time | 1h 45m |
| Altitude | 20000 |
| Route | EGVAT1D GEREN UL445 GABSO GABSO4C |
| Aircraft | B738/M-SDE2E3FGHIRWXY/LB1 |
Departure
| Time | 2026-04-26 10:24 |
|---|---|
| Airport | Julius Nyerere International Airport (HTDA) |
Arrival
| Time | 2026-04-26 12:09 |
|---|---|
| Airport | Jomo Kenyatta International Airport (HKJK) |
| Time | Latitude | Longitude | Altitude | Speed | Heading |
|---|---|---|---|---|---|
| 2026-04-26 09:32 | -6.87391 | 39.20368 | 179 ft | 0 kts | 315° |
| 2026-04-26 10:13 | -6.87394 | 39.20367 | 187 ft | 4 kts | 26° |
| 2026-04-26 10:13 | -6.87392 | 39.20368 | 187 ft | 4 kts | 51° |
| 2026-04-26 10:13 | -6.87409 | 39.20348 | 179 ft | 4 kts | 49° |
| 2026-04-26 10:14 | -6.87424 | 39.20326 | 179 ft | 4 kts | 77° |
| 2026-04-26 10:14 | -6.87426 | 39.20317 | 181 ft | 0 kts | 80° |
| 2026-04-26 10:18 | -6.87425 | 39.20318 | 180 ft | 0 kts | 80° |
| 2026-04-26 10:18 | -6.87423 | 39.20330 | 179 ft | 4 kts | 81° |
| 2026-04-26 10:18 | -6.87414 | 39.20383 | 181 ft | 11 kts | 76° |
| 2026-04-26 10:18 | -6.87365 | 39.20461 | 178 ft | 15 kts | 45° |
| 2026-04-26 10:19 | -6.87284 | 39.20541 | 178 ft | 17 kts | 45° |
| 2026-04-26 10:19 | -6.87194 | 39.20628 | 177 ft | 18 kts | 45° |
| 2026-04-26 10:19 | -6.87107 | 39.20718 | 177 ft | 18 kts | 45° |
| 2026-04-26 10:19 | -6.87016 | 39.20808 | 176 ft | 19 kts | 43° |
| 2026-04-26 10:20 | -6.86926 | 39.20897 | 176 ft | 18 kts | 46° |
| 2026-04-26 10:20 | -6.86838 | 39.20983 | 176 ft | 17 kts | 41° |
| 2026-04-26 10:20 | -6.86756 | 39.21068 | 176 ft | 17 kts | 47° |
| 2026-04-26 10:20 | -6.86678 | 39.21151 | 176 ft | 16 kts | 46° |
| 2026-04-26 10:21 | -6.86600 | 39.21228 | 175 ft | 15 kts | 46° |
| 2026-04-26 10:21 | -6.86527 | 39.21305 | 175 ft | 15 kts | 46° |
| 2026-04-26 10:21 | -6.86451 | 39.21386 | 175 ft | 16 kts | 47° |
| 2026-04-26 10:21 | -6.86370 | 39.21465 | 174 ft | 16 kts | 48° |
| 2026-04-26 10:22 | -6.86320 | 39.21558 | 174 ft | 15 kts | 88° |
| 2026-04-26 10:22 | -6.86347 | 39.21621 | 172 ft | 2 kts | 107° |
| 2026-04-26 10:22 | -6.86353 | 39.21643 | 172 ft | 5 kts | 106° |
| 2026-04-26 10:22 | -6.86368 | 39.21684 | 171 ft | 7 kts | 112° |
| 2026-04-26 10:23 | -6.86383 | 39.21692 | 171 ft | 2 kts | 216° |
| 2026-04-26 10:23 | -6.86408 | 39.21660 | 172 ft | 28 kts | 228° |
| 2026-04-26 10:23 | -6.86791 | 39.21282 | 175 ft | 123 kts | 225° |
| 2026-04-26 10:23 | -6.87570 | 39.20502 | 352 ft | 189 kts | 226° |
| 2026-04-26 10:24 | -6.88517 | 39.19499 | 1301 ft | 201 kts | 222° |
| 2026-04-26 10:24 | -6.89398 | 39.18363 | 2229 ft | 212 kts | 244° |
| 2026-04-26 10:24 | -6.89498 | 39.16804 | 2734 ft | 239 kts | 284° |
| 2026-04-26 10:24 | -6.88668 | 39.15313 | 3143 ft | 250 kts | 302° |
| 2026-04-26 10:25 | -6.87702 | 39.13832 | 3538 ft | 255 kts | 298° |
| 2026-04-26 10:25 | -6.86806 | 39.12289 | 4051 ft | 255 kts | 297° |
| 2026-04-26 10:25 | -6.85951 | 39.10713 | 4538 ft | 256 kts | 295° |
| 2026-04-26 10:25 | -6.85125 | 39.09104 | 4988 ft | 261 kts | 294° |
| 2026-04-26 10:26 | -6.84317 | 39.07468 | 5479 ft | 261 kts | 294° |
| 2026-04-26 10:26 | -6.83523 | 39.05822 | 5945 ft | 263 kts | 293° |
| 2026-04-26 10:26 | -6.82728 | 39.04142 | 6330 ft | 268 kts | 292° |
| 2026-04-26 10:26 | -6.81932 | 39.02447 | 6836 ft | 268 kts | 293° |
| 2026-04-26 10:27 | -6.81144 | 39.00760 | 7247 ft | 272 kts | 293° |
| 2026-04-26 10:27 | -6.80338 | 38.99030 | 7748 ft | 273 kts | 294° |
| 2026-04-26 10:27 | -6.79531 | 38.97299 | 7969 ft | 274 kts | 295° |
| 2026-04-26 10:27 | -6.78380 | 38.95776 | 8283 ft | 277 kts | 326° |
| 2026-04-26 10:28 | -6.76620 | 38.95084 | 8755 ft | 272 kts | 354° |
| 2026-04-26 10:28 | -6.74774 | 38.95282 | 9005 ft | 270 kts | 21° |
| 2026-04-26 10:28 | -6.73205 | 38.96287 | 8988 ft | 267 kts | 48° |
| 2026-04-26 10:28 | -6.72244 | 38.97839 | 8966 ft | 260 kts | 74° |
| 2026-04-26 10:29 | -6.71674 | 38.99570 | 8978 ft | 265 kts | 66° |
| 2026-04-26 10:29 | -6.70659 | 39.01127 | 8986 ft | 269 kts | 50° |
| 2026-04-26 10:29 | -6.69259 | 39.02387 | 8983 ft | 271 kts | 39° |
| 2026-04-26 10:29 | -6.67690 | 39.03448 | 8976 ft | 273 kts | 32° |
| 2026-04-26 10:30 | -6.66006 | 39.04343 | 8956 ft | 275 kts | 29° |
| 2026-04-26 10:30 | -6.64240 | 39.05226 | 8968 ft | 290 kts | 28° |
| 2026-04-26 10:30 | -6.62389 | 39.06127 | 9284 ft | 300 kts | 25° |
| 2026-04-26 10:30 | -6.60340 | 39.06521 | 9272 ft | 303 kts | 355° |
| 2026-04-26 10:31 | -6.58308 | 39.05989 | 9642 ft | 301 kts | 345° |
| 2026-04-26 10:31 | -6.56270 | 39.05439 | 10304 ft | 307 kts | 348° |
| 2026-04-26 10:31 | -6.54117 | 39.04902 | 10489 ft | 331 kts | 348° |
| 2026-04-26 10:31 | -6.87391 | 39.20368 | 10703 ft | 0 kts | 315° |
| 2026-04-26 10:33 | -6.86591 | 39.21045 | 176 ft | 0 kts | 314° |
| 2026-04-26 10:54 | -6.86592 | 39.21047 | 176 ft | 3 kts | 314° |
| 2026-04-26 10:54 | -6.86612 | 39.21065 | 175 ft | 4 kts | 327° |
| 2026-04-26 10:54 | -6.86636 | 39.21076 | 176 ft | 4 kts | 351° |
| 2026-04-26 10:54 | -6.86659 | 39.21074 | 176 ft | 3 kts | 41° |
| 2026-04-26 10:55 | -6.86664 | 39.21069 | 176 ft | 0 kts | 44° |
| 2026-04-26 10:57 | -6.86663 | 39.21070 | 176 ft | 1 kts | 45° |
| 2026-04-26 10:58 | -6.86658 | 39.21076 | 176 ft | 2 kts | 48° |
| 2026-04-26 10:58 | -6.86646 | 39.21089 | 178 ft | 3 kts | 49° |
| 2026-04-26 10:58 | -6.86628 | 39.21111 | 174 ft | 5 kts | 49° |
| 2026-04-26 10:58 | -6.86603 | 39.21139 | 175 ft | 6 kts | 49° |
| 2026-04-26 10:59 | -6.86575 | 39.21173 | 175 ft | 7 kts | 48° |
| 2026-04-26 10:59 | -6.86546 | 39.21214 | 175 ft | 8 kts | 40° |
| 2026-04-26 10:59 | -6.86499 | 39.21244 | 175 ft | 9 kts | 34° |
| 2026-04-26 10:59 | -6.86449 | 39.21285 | 175 ft | 10 kts | 44° |
| 2026-04-26 11:00 | -6.86399 | 39.21335 | 175 ft | 11 kts | 46° |
| 2026-04-26 11:00 | -6.86346 | 39.21392 | 174 ft | 11 kts | 46° |
| 2026-04-26 11:00 | -6.86290 | 39.21450 | 172 ft | 12 kts | 45° |
| 2026-04-26 11:00 | -6.86232 | 39.21516 | 174 ft | 12 kts | 63° |
| 2026-04-26 11:01 | -6.86264 | 39.21582 | 173 ft | 12 kts | 167° |
| 2026-04-26 11:01 | -6.86315 | 39.21604 | 173 ft | 0 kts | 143° |
| 2026-04-26 11:01 | -6.86316 | 39.21605 | 173 ft | 1 kts | 143° |
| 2026-04-26 11:01 | -6.86328 | 39.21613 | 173 ft | 3 kts | 143° |
| 2026-04-26 11:02 | -6.86351 | 39.21633 | 174 ft | 6 kts | 138° |
| 2026-04-26 11:02 | -6.86387 | 39.21660 | 172 ft | 5 kts | 167° |
| 2026-04-26 11:02 | -6.86413 | 39.21650 | 172 ft | 16 kts | 210° |
| 2026-04-26 11:02 | -6.86747 | 39.21333 | 175 ft | 113 kts | 224° |
| 2026-04-26 11:03 | -6.87485 | 39.20600 | 401 ft | 174 kts | 226° |
| 2026-04-26 11:03 | -6.88325 | 39.19645 | 1423 ft | 180 kts | 224° |
| 2026-04-26 11:03 | -6.89255 | 39.18709 | 2437 ft | 194 kts | 221° |
| 2026-04-26 11:03 | -6.90282 | 39.17695 | 2819 ft | 219 kts | 222° |
| 2026-04-26 11:04 | -6.91440 | 39.16663 | 3047 ft | 233 kts | 209° |
| 2026-04-26 11:04 | -6.92994 | 39.16367 | 3524 ft | 235 kts | 171° |
| 2026-04-26 11:04 | -6.94518 | 39.17090 | 3726 ft | 255 kts | 140° |
| 2026-04-26 11:04 | -6.95670 | 39.18489 | 4316 ft | 264 kts | 122° |
| 2026-04-26 11:05 | -6.96429 | 39.20174 | 5066 ft | 266 kts | 115° |
| 2026-04-26 11:05 | -6.97152 | 39.21905 | 5756 ft | 270 kts | 115° |
| 2026-04-26 11:05 | -6.97889 | 39.23645 | 6544 ft | 270 kts | 115° |
| 2026-04-26 11:05 | -6.98641 | 39.25378 | 7286 ft | 271 kts | 115° |
| 2026-04-26 11:06 | -6.99413 | 39.27124 | 7670 ft | 273 kts | 115° |
| 2026-04-26 11:06 | -6.99927 | 39.28279 | 7837 ft | 272 kts | 115° |
| 2026-04-26 11:06 | -7.00957 | 39.30578 | 7921 ft | 275 kts | 115° |
| 2026-04-26 11:06 | -7.01656 | 39.32386 | 7922 ft | 280 kts | 102° |
| 2026-04-26 11:07 | -7.01521 | 39.34318 | 7968 ft | 282 kts | 71° |
| 2026-04-26 11:07 | -7.00409 | 39.35954 | 8343 ft | 291 kts | 43° |
| 2026-04-26 11:07 | -6.98628 | 39.36921 | 9119 ft | 295 kts | 16° |
| 2026-04-26 11:07 | -6.96578 | 39.37025 | 9959 ft | 300 kts | 351° |
| 2026-04-26 11:08 | -6.94554 | 39.36378 | 10436 ft | 316 kts | 340° |
| 2026-04-26 11:08 | -6.92457 | 39.35487 | 10668 ft | 337 kts | 338° |
| 2026-04-26 11:08 | -6.90275 | 39.34524 | 11128 ft | 347 kts | 338° |
| 2026-04-26 11:08 | -6.88047 | 39.33534 | 11737 ft | 353 kts | 338° |
| 2026-04-26 11:09 | -6.85788 | 39.32525 | 12427 ft | 356 kts | 337° |
| 2026-04-26 11:09 | -6.83545 | 39.31525 | 13139 ft | 358 kts | 337° |
| 2026-04-26 11:09 | -6.81251 | 39.30505 | 13832 ft | 362 kts | 337° |
| 2026-04-26 11:09 | -6.78933 | 39.29477 | 14473 ft | 366 kts | 337° |
| 2026-04-26 11:10 | -6.76591 | 39.28437 | 15067 ft | 371 kts | 337° |
| 2026-04-26 11:10 | -6.74248 | 39.27385 | 15813 ft | 370 kts | 337° |
| 2026-04-26 11:10 | -6.71880 | 39.26316 | 16522 ft | 372 kts | 337° |
| 2026-04-26 11:10 | -6.69504 | 39.25241 | 17139 ft | 376 kts | 337° |
| 2026-04-26 11:11 | -6.67103 | 39.24156 | 17765 ft | 380 kts | 337° |
| 2026-04-26 11:11 | -6.64683 | 39.23062 | 18399 ft | 382 kts | 337° |
| 2026-04-26 11:11 | -6.62254 | 39.21966 | 18958 ft | 384 kts | 336° |
| 2026-04-26 11:11 | -6.59809 | 39.20862 | 19496 ft | 387 kts | 337° |
| 2026-04-26 11:12 | -6.57375 | 39.19764 | 19896 ft | 390 kts | 337° |
| 2026-04-26 11:12 | -6.54901 | 39.18649 | 19915 ft | 389 kts | 337° |
| 2026-04-26 11:12 | -6.52436 | 39.17537 | 19938 ft | 389 kts | 337° |
| 2026-04-26 11:12 | -6.49962 | 39.16422 | 19936 ft | 390 kts | 337° |
| 2026-04-26 11:13 | -6.47483 | 39.15305 | 19949 ft | 390 kts | 337° |
| 2026-04-26 11:13 | -6.45011 | 39.14191 | 19947 ft | 390 kts | 337° |
| 2026-04-26 11:13 | -6.42532 | 39.13075 | 19946 ft | 390 kts | 336° |
| 2026-04-26 11:13 | -6.40052 | 39.11957 | 19943 ft | 390 kts | 337° |
| 2026-04-26 11:14 | -6.37571 | 39.10840 | 19937 ft | 390 kts | 337° |
| 2026-04-26 11:14 | -6.35098 | 39.09726 | 19935 ft | 390 kts | 337° |
| 2026-04-26 11:14 | -6.32657 | 39.08627 | 19937 ft | 390 kts | 337° |
| 2026-04-26 11:14 | -6.30987 | 39.07875 | 19937 ft | 390 kts | 337° |
| 2026-04-26 11:15 | -6.27707 | 39.06399 | 19941 ft | 389 kts | 337° |
| 2026-04-26 11:15 | -6.25242 | 39.05289 | 19941 ft | 389 kts | 337° |
| 2026-04-26 11:15 | -6.22764 | 39.04174 | 19940 ft | 389 kts | 337° |
| 2026-04-26 11:15 | -6.20294 | 39.03062 | 19938 ft | 389 kts | 337° |
| 2026-04-26 11:16 | -6.17825 | 39.01951 | 19937 ft | 389 kts | 337° |
| 2026-04-26 11:16 | -6.15394 | 39.00856 | 19929 ft | 384 kts | 337° |
| 2026-04-26 11:16 | -6.12990 | 38.99773 | 19918 ft | 374 kts | 337° |
| 2026-04-26 11:16 | -6.10623 | 38.98707 | 19937 ft | 372 kts | 337° |
| 2026-04-26 11:17 | -6.08260 | 38.97644 | 19945 ft | 373 kts | 337° |
| 2026-04-26 11:17 | -6.05894 | 38.96582 | 19946 ft | 373 kts | 337° |
| 2026-04-26 11:17 | -6.03516 | 38.95515 | 19944 ft | 374 kts | 337° |
| 2026-04-26 11:17 | -6.01140 | 38.94449 | 19941 ft | 375 kts | 337° |
| 2026-04-26 11:18 | -5.98759 | 38.93380 | 19939 ft | 375 kts | 337° |
| 2026-04-26 11:18 | -5.96382 | 38.92311 | 19938 ft | 375 kts | 337° |
| 2026-04-26 11:18 | -5.93995 | 38.91237 | 19935 ft | 375 kts | 337° |
| 2026-04-26 11:18 | -5.91621 | 38.90167 | 19936 ft | 374 kts | 337° |
| 2026-04-26 11:19 | -5.89242 | 38.89095 | 19932 ft | 374 kts | 337° |
| 2026-04-26 11:19 | -5.86871 | 38.88028 | 19935 ft | 374 kts | 337° |
| 2026-04-26 11:19 | -5.84527 | 38.86975 | 19937 ft | 373 kts | 337° |
| 2026-04-26 11:19 | -5.82155 | 38.85911 | 19937 ft | 373 kts | 337° |
| 2026-04-26 11:20 | -5.79789 | 38.84849 | 19937 ft | 373 kts | 337° |
| 2026-04-26 11:20 | -5.78216 | 38.84142 | 19938 ft | 373 kts | 337° |
| 2026-04-26 11:20 | -5.75047 | 38.82718 | 19937 ft | 373 kts | 338° |
| 2026-04-26 11:20 | -5.72679 | 38.81654 | 19935 ft | 373 kts | 338° |
| 2026-04-26 11:21 | -5.70310 | 38.80591 | 19937 ft | 373 kts | 337° |
| 2026-04-26 11:21 | -5.67939 | 38.79525 | 19937 ft | 373 kts | 337° |
| 2026-04-26 11:21 | -5.65601 | 38.78475 | 19936 ft | 373 kts | 338° |
| 2026-04-26 11:21 | -5.63233 | 38.77412 | 19939 ft | 373 kts | 337° |
| 2026-04-26 11:22 | -5.60866 | 38.76349 | 19940 ft | 373 kts | 337° |
| 2026-04-26 11:22 | -5.58492 | 38.75283 | 19939 ft | 374 kts | 338° |
| 2026-04-26 11:22 | -5.56118 | 38.74218 | 19946 ft | 374 kts | 338° |
| 2026-04-26 11:22 | -5.53743 | 38.73151 | 19947 ft | 374 kts | 337° |
| 2026-04-26 11:23 | -5.51366 | 38.72085 | 19940 ft | 374 kts | 337° |
| 2026-04-26 11:23 | -5.48988 | 38.71017 | 19944 ft | 374 kts | 337° |
| 2026-04-26 11:23 | -5.46611 | 38.69950 | 19945 ft | 375 kts | 338° |
| 2026-04-26 11:23 | -5.44227 | 38.68881 | 19942 ft | 375 kts | 338° |
| 2026-04-26 11:24 | -5.41881 | 38.67828 | 19945 ft | 375 kts | 337° |
| 2026-04-26 11:24 | -5.39502 | 38.66761 | 19945 ft | 375 kts | 337° |
| 2026-04-26 11:24 | -5.37119 | 38.65692 | 19949 ft | 375 kts | 337° |
| 2026-04-26 11:24 | -5.34735 | 38.64622 | 19961 ft | 375 kts | 338° |
| 2026-04-26 11:25 | -5.32350 | 38.63553 | 19958 ft | 376 kts | 338° |
| 2026-04-26 11:25 | -5.29967 | 38.62484 | 19952 ft | 376 kts | 337° |
| 2026-04-26 11:25 | -5.27577 | 38.61412 | 19956 ft | 376 kts | 338° |
| 2026-04-26 11:25 | -5.25226 | 38.60358 | 19941 ft | 375 kts | 338° |
| 2026-04-26 11:26 | -5.22848 | 38.59291 | 19958 ft | 374 kts | 337° |
| 2026-04-26 11:26 | -5.20475 | 38.58227 | 19953 ft | 373 kts | 337° |
| 2026-04-26 11:26 | -5.18114 | 38.57169 | 19960 ft | 372 kts | 337° |
| 2026-04-26 11:26 | -5.15753 | 38.56110 | 19960 ft | 372 kts | 338° |
| 2026-04-26 11:27 | -5.13389 | 38.55051 | 19958 ft | 371 kts | 338° |
| 2026-04-26 11:27 | -5.11034 | 38.53995 | 19970 ft | 372 kts | 338° |
| 2026-04-26 11:27 | -5.08669 | 38.52936 | 19969 ft | 373 kts | 337° |
| 2026-04-26 11:27 | -5.06295 | 38.51872 | 19962 ft | 374 kts | 337° |
| 2026-04-26 11:28 | -5.03956 | 38.50824 | 19971 ft | 374 kts | 338° |
| 2026-04-26 11:28 | -5.01580 | 38.49759 | 19950 ft | 374 kts | 338° |
| 2026-04-26 11:28 | -4.99209 | 38.48697 | 19973 ft | 373 kts | 338° |
| 2026-04-26 11:28 | -4.96835 | 38.47634 | 19958 ft | 373 kts | 338° |
| 2026-04-26 11:29 | -4.94468 | 38.46573 | 19963 ft | 373 kts | 338° |
| 2026-04-26 11:29 | -4.92097 | 38.45511 | 19976 ft | 373 kts | 338° |
| 2026-04-26 11:29 | -4.89730 | 38.44451 | 19961 ft | 373 kts | 338° |
| 2026-04-26 11:29 | -4.87361 | 38.43390 | 19979 ft | 372 kts | 338° |
| 2026-04-26 11:30 | -4.84998 | 38.42332 | 19980 ft | 372 kts | 338° |
| 2026-04-26 11:30 | -4.83433 | 38.41631 | 19977 ft | 373 kts | 338° |
| 2026-04-26 11:30 | -4.80295 | 38.40227 | 19969 ft | 373 kts | 338° |
| 2026-04-26 11:30 | -4.77925 | 38.39166 | 19976 ft | 373 kts | 337° |
| 2026-04-26 11:31 | -4.75561 | 38.38107 | 19977 ft | 373 kts | 338° |
| 2026-04-26 11:31 | -4.73197 | 38.37048 | 19979 ft | 372 kts | 338° |
| 2026-04-26 11:31 | -4.70829 | 38.35989 | 19962 ft | 372 kts | 338° |
| 2026-04-26 11:31 | -4.68462 | 38.34929 | 19970 ft | 372 kts | 338° |
| 2026-04-26 11:32 | -4.66099 | 38.33872 | 19963 ft | 372 kts | 338° |
| 2026-04-26 11:32 | -4.63736 | 38.32814 | 19960 ft | 372 kts | 338° |
| 2026-04-26 11:32 | -4.61406 | 38.31772 | 19967 ft | 372 kts | 338° |
| 2026-04-26 11:32 | -4.59050 | 38.30718 | 19962 ft | 371 kts | 338° |
| 2026-04-26 11:33 | -4.56686 | 38.29660 | 19961 ft | 371 kts | 338° |
| 2026-04-26 11:33 | -4.54329 | 38.28606 | 19966 ft | 371 kts | 338° |
| 2026-04-26 11:33 | -4.51971 | 38.27551 | 19957 ft | 371 kts | 338° |
| 2026-04-26 11:33 | -4.49625 | 38.26501 | 19975 ft | 371 kts | 338° |
| 2026-04-26 11:34 | -4.47256 | 38.25442 | 19966 ft | 372 kts | 337° |
| 2026-04-26 11:34 | -4.44890 | 38.24384 | 19960 ft | 372 kts | 337° |
| 2026-04-26 11:34 | -4.42524 | 38.23326 | 19965 ft | 373 kts | 337° |
| 2026-04-26 11:34 | -4.40184 | 38.22279 | 19950 ft | 373 kts | 337° |
| 2026-04-26 11:35 | -4.37813 | 38.21219 | 19944 ft | 373 kts | 337° |
| 2026-04-26 11:35 | -4.35447 | 38.20161 | 19953 ft | 373 kts | 337° |
| 2026-04-26 11:35 | -4.33081 | 38.19103 | 19959 ft | 373 kts | 337° |
| 2026-04-26 11:35 | -4.31518 | 38.18404 | 19958 ft | 373 kts | 337° |
| 2026-04-26 11:36 | -4.28352 | 38.16989 | 19947 ft | 373 kts | 337° |
| 2026-04-26 11:36 | -4.25982 | 38.15930 | 19951 ft | 372 kts | 337° |
| 2026-04-26 11:36 | -4.23610 | 38.14869 | 19956 ft | 372 kts | 337° |
| 2026-04-26 11:36 | -4.21230 | 38.13806 | 19973 ft | 381 kts | 337° |
| 2026-04-26 11:37 | -4.18795 | 38.12719 | 19965 ft | 396 kts | 338° |
| 2026-04-26 11:37 | -4.16269 | 38.11591 | 19946 ft | 399 kts | 338° |
| 2026-04-26 11:37 | -4.13737 | 38.10459 | 19943 ft | 399 kts | 338° |
| 2026-04-26 11:37 | -4.11205 | 38.09327 | 19945 ft | 398 kts | 338° |
| 2026-04-26 11:38 | -4.08677 | 38.08197 | 19949 ft | 397 kts | 338° |
| 2026-04-26 11:38 | -4.06155 | 38.07070 | 19942 ft | 397 kts | 338° |
| 2026-04-26 11:38 | -4.03601 | 38.06024 | 19938 ft | 396 kts | 341° |
| 2026-04-26 11:38 | -4.01007 | 38.05096 | 19955 ft | 396 kts | 342° |
| 2026-04-26 11:39 | -3.98386 | 38.04197 | 20032 ft | 402 kts | 342° |
| 2026-04-26 11:39 | -3.95726 | 38.03286 | 20525 ft | 404 kts | 342° |
| 2026-04-26 11:39 | -3.93076 | 38.02368 | 21163 ft | 403 kts | 342° |
| 2026-04-26 11:39 | -3.90426 | 38.01439 | 21684 ft | 405 kts | 342° |
| 2026-04-26 11:40 | -3.88663 | 38.00816 | 21976 ft | 408 kts | 342° |
| 2026-04-26 11:40 | -3.85974 | 37.99861 | 22223 ft | 414 kts | 342° |
| 2026-04-26 11:40 | -3.82383 | 37.98582 | 22233 ft | 409 kts | 342° |
| 2026-04-26 11:40 | -3.79740 | 37.97637 | 21990 ft | 399 kts | 342° |
| 2026-04-26 11:41 | -3.77160 | 37.96715 | 21984 ft | 392 kts | 342° |
| 2026-04-26 11:42 | -3.60076 | 37.90627 | 21990 ft | 390 kts | 342° |
| 2026-04-26 11:43 | -3.56731 | 37.89337 | 21983 ft | 391 kts | 339° |
| 2026-04-26 11:43 | -3.55073 | 37.88607 | 21986 ft | 391 kts | 338° |
| 2026-04-26 11:43 | -3.51767 | 37.87086 | 21987 ft | 392 kts | 337° |
| 2026-04-26 11:43 | -3.50129 | 37.86323 | 21988 ft | 392 kts | 337° |
| 2026-04-26 11:44 | -3.47666 | 37.85179 | 21995 ft | 392 kts | 337° |
| 2026-04-26 11:44 | -3.45184 | 37.84034 | 22001 ft | 392 kts | 338° |
| 2026-04-26 11:44 | -3.42699 | 37.82895 | 22007 ft | 392 kts | 338° |
| 2026-04-26 11:44 | -3.40218 | 37.81763 | 21998 ft | 392 kts | 338° |
| 2026-04-26 11:45 | -3.37735 | 37.80633 | 22009 ft | 393 kts | 338° |
| 2026-04-26 11:45 | -3.35240 | 37.79500 | 22021 ft | 393 kts | 338° |
| 2026-04-26 11:45 | -3.32754 | 37.78372 | 22031 ft | 393 kts | 338° |
| 2026-04-26 11:45 | -3.30262 | 37.77241 | 22027 ft | 393 kts | 338° |
| 2026-04-26 11:46 | -3.27807 | 37.76127 | 22031 ft | 393 kts | 338° |
| 2026-04-26 11:46 | -3.25316 | 37.74997 | 22042 ft | 393 kts | 338° |
| 2026-04-26 11:46 | -3.22824 | 37.73867 | 22038 ft | 393 kts | 338° |
| 2026-04-26 11:46 | -3.20341 | 37.72740 | 22038 ft | 393 kts | 338° |
| 2026-04-26 11:47 | -3.17848 | 37.71609 | 22039 ft | 393 kts | 338° |
| 2026-04-26 11:47 | -3.15359 | 37.70480 | 22051 ft | 393 kts | 338° |
| 2026-04-26 11:47 | -3.12874 | 37.69352 | 22058 ft | 392 kts | 338° |
| 2026-04-26 11:47 | -3.10387 | 37.68224 | 22055 ft | 392 kts | 338° |
| 2026-04-26 11:48 | -3.07935 | 37.67112 | 22055 ft | 392 kts | 338° |
| 2026-04-26 11:48 | -3.05453 | 37.65986 | 22062 ft | 392 kts | 338° |
| 2026-04-26 11:48 | -3.02971 | 37.64861 | 22067 ft | 392 kts | 338° |
| 2026-04-26 11:48 | -3.00489 | 37.63735 | 22068 ft | 392 kts | 338° |
| 2026-04-26 11:49 | -2.98008 | 37.62610 | 22071 ft | 392 kts | 338° |
| 2026-04-26 11:49 | -2.95526 | 37.61484 | 22083 ft | 392 kts | 338° |
| 2026-04-26 11:49 | -2.93042 | 37.60357 | 22082 ft | 392 kts | 338° |
| 2026-04-26 11:49 | -2.90560 | 37.59232 | 22081 ft | 392 kts | 338° |
| 2026-04-26 11:50 | -2.88124 | 37.58127 | 22094 ft | 392 kts | 337° |
| 2026-04-26 11:50 | -2.85597 | 37.56981 | 22094 ft | 392 kts | 337° |
| 2026-04-26 11:50 | -2.83184 | 37.55776 | 22088 ft | 393 kts | 334° |
| 2026-04-26 11:50 | -2.80753 | 37.54447 | 22100 ft | 405 kts | 333° |
| 2026-04-26 11:51 | -2.78264 | 37.53045 | 22095 ft | 417 kts | 332° |
| 2026-04-26 11:51 | -2.75705 | 37.51594 | 22095 ft | 427 kts | 332° |
| 2026-04-26 11:51 | -2.73092 | 37.50116 | 22088 ft | 436 kts | 332° |
| 2026-04-26 11:51 | -2.70422 | 37.48614 | 22097 ft | 444 kts | 332° |
| 2026-04-26 11:52 | -2.67704 | 37.47092 | 22088 ft | 451 kts | 332° |
| 2026-04-26 11:52 | -2.64938 | 37.45549 | 22061 ft | 457 kts | 332° |
| 2026-04-26 11:52 | -2.62148 | 37.43997 | 22069 ft | 462 kts | 332° |
| 2026-04-26 11:52 | -2.59360 | 37.42447 | 22069 ft | 467 kts | 332° |
| 2026-04-26 11:53 | -2.56521 | 37.40870 | 22054 ft | 467 kts | 332° |
| 2026-04-26 11:53 | -2.53685 | 37.39294 | 22041 ft | 465 kts | 332° |
| 2026-04-26 11:53 | -2.50857 | 37.37723 | 22041 ft | 465 kts | 332° |
| 2026-04-26 11:54 | -2.45204 | 37.34583 | 22052 ft | 464 kts | 332° |
| 2026-04-26 11:54 | -2.42385 | 37.33018 | 22055 ft | 465 kts | 332° |
| 2026-04-26 11:54 | -2.39554 | 37.31445 | 22059 ft | 465 kts | 332° |
| 2026-04-26 11:54 | -2.36733 | 37.29879 | 22050 ft | 464 kts | 332° |
| 2026-04-26 11:55 | -2.33941 | 37.28328 | 21762 ft | 452 kts | 332° |
| 2026-04-26 11:55 | -2.31205 | 37.26808 | 20984 ft | 449 kts | 332° |
| 2026-04-26 11:55 | -2.28485 | 37.25297 | 20483 ft | 442 kts | 332° |
| 2026-04-26 11:55 | -2.25854 | 37.23835 | 20359 ft | 441 kts | 332° |
| 2026-04-26 11:56 | -2.23138 | 37.22329 | 20263 ft | 451 kts | 332° |
| 2026-04-26 11:56 | -2.20378 | 37.20798 | 20154 ft | 454 kts | 332° |
| 2026-04-26 11:56 | -2.17626 | 37.19271 | 20062 ft | 452 kts | 332° |
| 2026-04-26 11:56 | -2.14883 | 37.17748 | 19953 ft | 451 kts | 332° |
| 2026-04-26 11:57 | -2.12138 | 37.16223 | 19851 ft | 451 kts | 332° |
| 2026-04-26 11:57 | -2.09398 | 37.14702 | 19744 ft | 450 kts | 332° |
| 2026-04-26 11:57 | -2.06657 | 37.13181 | 19669 ft | 450 kts | 332° |
| 2026-04-26 11:57 | -2.03928 | 37.11666 | 19485 ft | 451 kts | 332° |
| 2026-04-26 11:58 | -2.01165 | 37.10133 | 18893 ft | 451 kts | 332° |
| 2026-04-26 11:58 | -1.98462 | 37.08632 | 18347 ft | 441 kts | 332° |
| 2026-04-26 11:58 | -1.95814 | 37.07161 | 17369 ft | 432 kts | 332° |
| 2026-04-26 11:58 | -1.93240 | 37.05732 | 16429 ft | 427 kts | 332° |
| 2026-04-26 11:59 | -1.90622 | 37.04279 | 15465 ft | 423 kts | 332° |
| 2026-04-26 11:59 | -1.88064 | 37.02860 | 14557 ft | 419 kts | 332° |
| 2026-04-26 11:59 | -1.85530 | 37.01454 | 13620 ft | 415 kts | 332° |
| 2026-04-26 11:59 | -1.83021 | 37.00062 | 12628 ft | 412 kts | 332° |
| 2026-04-26 12:00 | -1.80557 | 36.98695 | 11688 ft | 405 kts | 332° |
| 2026-04-26 12:00 | -1.78120 | 36.97342 | 10751 ft | 397 kts | 331° |
| 2026-04-26 12:00 | -1.75724 | 36.96013 | 9822 ft | 391 kts | 331° |
| 2026-04-26 12:00 | -1.73360 | 36.94701 | 8856 ft | 390 kts | 331° |
| 2026-04-26 12:01 | -1.70988 | 36.93386 | 8495 ft | 391 kts | 331° |
| 2026-04-26 12:01 | -1.68614 | 36.92069 | 8328 ft | 389 kts | 331° |
| 2026-04-26 12:01 | -1.66296 | 36.90782 | 8192 ft | 376 kts | 331° |
| 2026-04-26 12:01 | -1.64046 | 36.89533 | 8065 ft | 364 kts | 331° |
| 2026-04-26 12:02 | -1.61838 | 36.88309 | 7955 ft | 362 kts | 331° |
| 2026-04-26 12:02 | -1.59625 | 36.87081 | 7925 ft | 364 kts | 331° |
| 2026-04-26 12:02 | -1.57428 | 36.85861 | 7931 ft | 360 kts | 331° |
| 2026-04-26 12:02 | -1.55243 | 36.84649 | 7923 ft | 355 kts | 331° |
| 2026-04-26 12:03 | -1.53157 | 36.83492 | 7889 ft | 339 kts | 331° |
| 2026-04-26 12:03 | -1.51155 | 36.82365 | 7887 ft | 321 kts | 329° |
| 2026-04-26 12:03 | -1.49366 | 36.81128 | 7907 ft | 304 kts | 324° |
| 2026-04-26 12:03 | -1.47748 | 36.79924 | 7921 ft | 276 kts | 324° |
| 2026-04-26 12:04 | -1.46292 | 36.78844 | 7919 ft | 250 kts | 325° |
| 2026-04-26 12:04 | -1.44813 | 36.78161 | 7886 ft | 221 kts | 358° |
| 2026-04-26 12:04 | -1.43421 | 36.78413 | 7926 ft | 189 kts | 25° |
| 2026-04-26 12:04 | -1.42301 | 36.78992 | 7925 ft | 180 kts | 37° |
| 2026-04-26 12:05 | -1.41373 | 36.79833 | 7927 ft | 181 kts | 52° |
| 2026-04-26 12:05 | -1.40602 | 36.80834 | 7868 ft | 183 kts | 56° |
| 2026-04-26 12:05 | -1.39866 | 36.81845 | 7673 ft | 180 kts | 56° |
| 2026-04-26 12:05 | -1.39160 | 36.82819 | 7434 ft | 166 kts | 56° |
| 2026-04-26 12:06 | -1.38509 | 36.83716 | 7236 ft | 153 kts | 57° |
| 2026-04-26 12:06 | -1.37899 | 36.84556 | 7071 ft | 144 kts | 56° |
| 2026-04-26 12:06 | -1.37305 | 36.85377 | 6912 ft | 148 kts | 55° |
| 2026-04-26 12:06 | -1.36698 | 36.86212 | 6761 ft | 149 kts | 56° |
| 2026-04-26 12:07 | -1.36082 | 36.87060 | 6541 ft | 149 kts | 58° |
| 2026-04-26 12:07 | -1.35474 | 36.87898 | 6315 ft | 148 kts | 57° |
| 2026-04-26 12:07 | -1.34873 | 36.88725 | 6101 ft | 151 kts | 57° |
| 2026-04-26 12:07 | -1.34259 | 36.89569 | 5884 ft | 149 kts | 57° |
| 2026-04-26 12:08 | -1.33656 | 36.90401 | 5672 ft | 149 kts | 56° |
| 2026-04-26 12:08 | -1.33041 | 36.91256 | 5467 ft | 151 kts | 57° |
| 2026-04-26 12:08 | -1.32425 | 36.92091 | 5324 ft | 143 kts | 56° |
| 2026-04-26 12:08 | -1.31913 | 36.92797 | 5316 ft | 104 kts | 54° |
| 2026-04-26 12:09 | -1.31580 | 36.93252 | 5304 ft | 45 kts | 54° |
| 2026-04-26 12:09 | -1.31612 | 36.93364 | 5303 ft | 10 kts | 144° |
| 2026-04-26 12:09 | -1.31613 | 36.93365 | 5303 ft | 0 kts | 144° |
| 2026-04-26 12:10 | -1.31615 | 36.93366 | 5306 ft | 1 kts | 144° |
| 2026-04-26 12:10 | -1.31630 | 36.93376 | 5301 ft | 5 kts | 146° |
| 2026-04-26 12:10 | -1.31668 | 36.93402 | 5304 ft | 8 kts | 146° |
| 2026-04-26 12:11 | -1.31723 | 36.93439 | 5306 ft | 10 kts | 146° |
| 2026-04-26 12:11 | -1.31785 | 36.93477 | 5303 ft | 11 kts | 160° |
| 2026-04-26 12:11 | -1.31852 | 36.93447 | 5306 ft | 12 kts | 238° |
| 2026-04-26 12:11 | -1.31895 | 36.93375 | 5306 ft | 12 kts | 235° |
| 2026-04-26 12:12 | -1.31943 | 36.93309 | 5313 ft | 12 kts | 232° |
| 2026-04-26 12:12 | -1.31991 | 36.93246 | 5312 ft | 11 kts | 233° |
| 2026-04-26 12:12 | -1.32037 | 36.93184 | 5312 ft | 11 kts | 233° |
| 2026-04-26 12:12 | -1.32067 | 36.93144 | 5313 ft | 11 kts | 233° |
| 2026-04-26 12:13 | -1.32125 | 36.93065 | 5315 ft | 10 kts | 237° |
| 2026-04-26 12:13 | -1.32165 | 36.93007 | 5320 ft | 10 kts | 234° |
| 2026-04-26 12:13 | -1.32205 | 36.92951 | 5316 ft | 10 kts | 234° |
| 2026-04-26 12:13 | -1.32245 | 36.92897 | 5321 ft | 10 kts | 233° |
| 2026-04-26 12:14 | -1.32283 | 36.92845 | 5317 ft | 9 kts | 233° |
| 2026-04-26 12:14 | -1.32321 | 36.92794 | 5323 ft | 9 kts | 233° |
| 2026-04-26 12:14 | -1.32358 | 36.92745 | 5321 ft | 9 kts | 233° |
| 2026-04-26 12:14 | -1.32394 | 36.92696 | 5321 ft | 9 kts | 233° |
| 2026-04-26 12:15 | -1.32433 | 36.92641 | 5321 ft | 12 kts | 234° |
| 2026-04-26 12:15 | -1.32489 | 36.92562 | 5317 ft | 16 kts | 233° |
| 2026-04-26 12:15 | -1.32566 | 36.92458 | 5316 ft | 20 kts | 233° |
| 2026-04-26 12:15 | -1.32657 | 36.92355 | 5323 ft | 13 kts | 198° |
| 2026-04-26 12:16 | -1.32737 | 36.92386 | 5318 ft | 13 kts | 142° |
| 2026-04-26 12:16 | -1.32803 | 36.92420 | 5323 ft | 11 kts | 201° |
| 2026-04-26 12:16 | -1.32842 | 36.92407 | 5323 ft | 3 kts | 169° |
| 2026-04-26 12:16 | -1.32864 | 36.92416 | 5318 ft | 3 kts | 157° |
| 2026-04-26 12:17 | -1.32878 | 36.92422 | 5321 ft | 2 kts | 156° |
| 2026-04-26 12:17 | -1.32880 | 36.92422 | 5322 ft | 0 kts | 156° |
| 2026-04-26 12:17 | -1.32880 | 36.92423 | 5322 ft | 0 kts | 156° |